createdAt,value
2023-01-13T00:01:29.329Z,77.85
2023-01-13T00:03:57.623Z,78.00
2023-01-13T00:06:29.682Z,78.20
2023-01-13T00:08:58.110Z,78.40
2023-01-13T00:11:26.591Z,78.47
2023-01-13T00:13:54.852Z,78.73
2023-01-13T00:16:23.088Z,78.86
2023-01-13T00:18:53.662Z,78.95
2023-01-13T00:21:24.018Z,79.13
2023-01-13T00:23:54.148Z,79.17
2023-01-13T00:26:24.824Z,79.27
2023-01-13T00:28:58.206Z,79.31
2023-01-13T00:31:28.411Z,79.29
2023-01-13T00:33:57.566Z,79.44
2023-01-13T00:36:26.368Z,79.45
2023-01-13T00:38:54.795Z,79.38
2023-01-13T00:41:24.939Z,79.15
2023-01-13T00:43:53.006Z,79.24
2023-01-13T00:46:23.039Z,79.10
2023-01-13T00:48:51.824Z,78.91
2023-01-13T00:51:21.836Z,78.83
2023-01-13T00:53:51.993Z,78.79
2023-01-13T00:56:39.262Z,78.72
2023-01-13T00:59:11.903Z,78.86
2023-01-13T01:01:40.794Z,78.96
2023-01-13T01:04:09.013Z,78.75
2023-01-13T01:06:37.127Z,78.89
2023-01-13T01:09:05.846Z,78.78
2023-01-13T01:11:34.890Z,78.80
2023-01-13T01:14:04.127Z,78.68
2023-01-13T01:16:33.887Z,78.68
2023-01-13T01:19:02.655Z,78.56
2023-01-13T01:21:31.531Z,78.64
2023-01-13T01:24:04.539Z,78.67
2023-01-13T01:26:33.338Z,78.78
2023-01-13T01:29:02.588Z,78.89
2023-01-13T01:31:33.194Z,78.86
2023-01-13T01:34:02.104Z,78.97
2023-01-13T01:36:30.617Z,79.08
2023-01-13T01:38:59.740Z,79.21
2023-01-13T01:41:30.578Z,79.24
2023-01-13T01:44:00.616Z,79.30
2023-01-13T01:46:40.118Z,79.38
2023-01-13T01:49:14.447Z,79.46
2023-01-13T01:51:46.901Z,79.66
2023-01-13T01:54:20.766Z,79.50
2023-01-13T01:56:49.275Z,79.53
2023-01-13T01:59:18.188Z,79.56
2023-01-13T02:01:46.528Z,79.45
2023-01-13T02:04:19.710Z,79.47
2023-01-13T02:06:49.309Z,79.48
2023-01-13T02:09:17.796Z,79.42
2023-01-13T02:12:04.350Z,79.43
2023-01-13T02:14:35.404Z,79.42
2023-01-13T02:17:09.444Z,79.63
2023-01-13T02:20:03.495Z,79.67
2023-01-13T02:23:29.726Z,79.87
2023-01-13T02:26:03.527Z,80.17
2023-01-13T02:29:16.040Z,80.31
2023-01-13T02:31:48.920Z,80.46
2023-01-13T02:34:26.218Z,80.48
2023-01-13T02:37:00.927Z,80.48
2023-01-13T02:39:56.084Z,80.49
2023-01-13T02:42:49.091Z,80.53
2023-01-13T02:45:24.181Z,80.57
2023-01-13T02:47:56.057Z,80.66
2023-01-13T02:50:31.158Z,80.60
2023-01-13T02:53:05.496Z,80.51
2023-01-13T02:55:42.990Z,80.66
2023-01-13T02:58:15.839Z,80.82
2023-01-13T03:00:45.292Z,81.13
2023-01-13T03:03:13.897Z,81.45
2023-01-13T03:05:46.479Z,81.60
2023-01-13T03:08:17.969Z,81.87
2023-01-13T03:10:55.006Z,82.16
2023-01-13T03:13:37.121Z,82.71
2023-01-13T03:16:24.080Z,83.02
2023-01-13T03:19:29.565Z,83.40
2023-01-13T03:22:07.533Z,83.64
2023-01-13T03:24:42.657Z,84.08
2023-01-13T03:27:19.735Z,84.41
2023-01-13T03:30:15.876Z,84.58
2023-01-13T03:32:48.744Z,84.92
2023-01-13T03:35:26.543Z,85.09
2023-01-13T03:38:09.652Z,85.06
2023-01-13T03:40:46.676Z,85.25
2023-01-13T03:43:38.224Z,85.61
2023-01-13T03:46:18.438Z,85.94
2023-01-13T03:48:49.828Z,86.42
2023-01-13T03:51:22.543Z,86.75
2023-01-13T03:53:57.511Z,87.29
2023-01-13T03:56:34.287Z,87.32
2023-01-13T03:59:05.218Z,87.51
2023-01-13T04:01:48.955Z,87.55
2023-01-13T04:04:23.421Z,87.74
2023-01-13T04:07:01.343Z,88.02
2023-01-13T04:09:47.728Z,88.26
2023-01-13T04:12:52.158Z,88.44
2023-01-13T04:15:23.000Z,88.78
2023-01-13T04:17:52.062Z,88.78
2023-01-13T04:20:20.892Z,88.95
2023-01-13T04:22:48.920Z,88.82
2023-01-13T04:25:16.855Z,88.76
2023-01-13T04:27:45.059Z,88.82
2023-01-13T04:30:13.161Z,88.95
2023-01-13T04:32:41.523Z,88.78
2023-01-13T04:35:09.548Z,88.68
2023-01-13T04:37:37.850Z,88.58
2023-01-13T04:40:06.801Z,88.60
2023-01-13T04:42:34.771Z,88.43
2023-01-13T04:45:02.774Z,88.20
2023-01-13T04:47:30.732Z,88.26
2023-01-13T04:49:58.644Z,88.24
2023-01-13T04:52:26.590Z,88.05
2023-01-13T04:54:54.572Z,88.10
2023-01-13T04:57:22.505Z,88.01
2023-01-13T04:59:50.486Z,87.95
2023-01-13T05:02:21.453Z,88.04
2023-01-13T05:04:49.688Z,87.87
2023-01-13T05:07:18.489Z,87.73
2023-01-13T05:09:46.413Z,87.75
2023-01-13T05:12:32.985Z,87.68
2023-01-13T05:15:19.283Z,87.70
2023-01-13T05:17:48.015Z,87.65
2023-01-13T05:20:16.204Z,87.62
2023-01-13T05:23:03.326Z,87.55
2023-01-13T05:25:31.657Z,87.46
2023-01-13T05:28:00.126Z,87.59
2023-01-13T05:30:31.340Z,87.47
2023-01-13T05:32:59.439Z,87.51
2023-01-13T05:35:29.315Z,87.39
2023-01-13T05:37:57.336Z,87.32
2023-01-13T05:40:43.492Z,87.20
2023-01-13T05:43:25.977Z,87.12
2023-01-13T05:45:54.345Z,86.96
2023-01-13T05:48:25.420Z,86.85
2023-01-13T05:50:54.155Z,86.79
2023-01-13T05:53:22.997Z,86.55
2023-01-13T05:55:51.729Z,86.50
2023-01-13T05:58:21.694Z,86.41
2023-01-13T06:00:49.867Z,86.14
2023-01-13T06:03:21.393Z,86.13
2023-01-13T06:05:51.075Z,86.01
2023-01-13T06:08:19.228Z,85.95
2023-01-13T06:10:47.219Z,85.79
2023-01-13T06:13:15.188Z,85.72
2023-01-13T06:15:43.180Z,85.59
2023-01-13T06:18:11.610Z,85.49
2023-01-13T06:20:39.567Z,85.40
2023-01-13T06:23:10.147Z,85.46
2023-01-13T06:26:30.876Z,85.41
2023-01-13T06:28:58.944Z,85.44
2023-01-13T06:31:28.782Z,85.45
2023-01-13T06:34:02.740Z,85.13
2023-01-13T06:36:35.877Z,85.23
2023-01-13T06:39:04.975Z,85.15
2023-01-13T06:41:52.344Z,84.98
2023-01-13T06:44:21.240Z,84.90
2023-01-13T06:46:49.383Z,84.81
2023-01-13T06:49:17.495Z,84.79
2023-01-13T06:51:46.632Z,84.76
2023-01-13T06:54:14.659Z,84.66
2023-01-13T06:56:42.624Z,84.60
2023-01-13T06:59:10.558Z,84.39
2023-01-13T07:01:39.041Z,84.21
2023-01-13T07:04:07.055Z,84.20
2023-01-13T07:06:35.054Z,84.09
2023-01-13T07:09:03.102Z,83.85
2023-01-13T07:11:31.642Z,83.78
2023-01-13T07:14:20.029Z,83.53
2023-01-13T07:16:48.153Z,83.63
2023-01-13T07:19:23.234Z,83.43
2023-01-13T07:21:52.433Z,83.32
2023-01-13T07:24:20.878Z,83.33
2023-01-13T07:26:50.594Z,83.35
2023-01-13T07:29:18.718Z,83.39
2023-01-13T07:31:49.691Z,83.51
2023-01-13T07:34:18.004Z,83.50
2023-01-13T07:36:46.085Z,83.37
2023-01-13T07:39:14.047Z,83.34
2023-01-13T07:42:00.439Z,83.21
2023-01-13T07:44:28.511Z,83.06
2023-01-13T07:46:56.950Z,82.92
2023-01-13T07:49:25.022Z,82.82
2023-01-13T07:51:52.953Z,82.84
2023-01-13T07:54:25.463Z,82.71
2023-01-13T07:56:59.717Z,82.69
2023-01-13T07:59:27.750Z,82.56
2023-01-13T08:01:55.850Z,82.37
2023-01-13T08:04:24.016Z,82.21
2023-01-13T08:06:52.043Z,82.13
2023-01-13T08:09:20.001Z,82.07
2023-01-13T08:12:07.928Z,81.94
2023-01-13T08:14:35.932Z,81.97
2023-01-13T08:17:04.019Z,81.98
2023-01-13T08:19:31.975Z,81.74
2023-01-13T08:22:00.099Z,81.80
2023-01-13T08:24:28.245Z,81.91
2023-01-13T08:26:56.251Z,81.94
2023-01-13T08:29:24.323Z,81.89
2023-01-13T08:31:52.361Z,81.90
2023-01-13T08:34:20.404Z,81.75
2023-01-13T08:36:50.105Z,81.63
2023-01-13T08:39:18.850Z,81.66
2023-01-13T08:41:55.565Z,81.54
2023-01-13T08:44:27.770Z,81.35
2023-01-13T08:46:56.551Z,81.57
2023-01-13T08:49:25.355Z,81.38
2023-01-13T08:51:53.869Z,81.44
2023-01-13T08:54:21.876Z,81.49
2023-01-13T08:56:49.929Z,81.37
2023-01-13T08:59:20.680Z,81.14
2023-01-13T09:01:48.824Z,81.28
2023-01-13T09:04:23.241Z,81.07
2023-01-13T09:06:52.389Z,81.21
2023-01-13T09:09:21.471Z,81.13
2023-01-13T09:12:10.028Z,80.91
2023-01-13T09:14:40.028Z,80.95
2023-01-13T09:17:08.259Z,81.02
2023-01-13T09:19:36.803Z,81.03
2023-01-13T09:22:05.095Z,81.02
2023-01-13T09:24:33.101Z,81.36
2023-01-13T09:27:01.252Z,81.47
2023-01-13T09:29:29.240Z,81.65
2023-01-13T09:31:58.258Z,81.79
2023-01-13T09:34:44.831Z,81.81
2023-01-13T09:37:12.780Z,81.78
2023-01-13T09:39:40.968Z,81.66
2023-01-13T09:42:45.672Z,81.52
2023-01-13T09:45:20.221Z,81.67
2023-01-13T09:48:19.540Z,81.65
2023-01-13T09:51:03.376Z,81.82
2023-01-13T09:53:38.880Z,81.93
2023-01-13T09:56:10.560Z,81.70
2023-01-13T09:58:38.802Z,81.72
2023-01-13T10:01:32.941Z,81.65
2023-01-13T10:04:19.658Z,81.66
2023-01-13T10:06:56.397Z,81.67
2023-01-13T10:09:30.692Z,81.64
2023-01-13T10:12:20.078Z,81.53
2023-01-13T10:14:57.417Z,81.53
2023-01-13T10:17:43.933Z,81.56
2023-01-13T10:20:16.393Z,81.65
2023-01-13T10:22:44.477Z,81.62
2023-01-13T10:25:12.386Z,81.42
2023-01-13T10:27:41.085Z,81.38
2023-01-13T10:30:21.384Z,81.32
2023-01-13T10:32:58.279Z,81.36
2023-01-13T10:35:54.168Z,81.21
2023-01-13T10:38:22.301Z,81.20
2023-01-13T10:40:56.538Z,81.03
2023-01-13T10:43:25.713Z,80.89
2023-01-13T10:45:56.831Z,80.88
2023-01-13T10:48:35.150Z,80.63
2023-01-13T10:51:18.829Z,80.57
2023-01-13T10:53:57.475Z,80.60
2023-01-13T10:56:28.801Z,80.62
2023-01-13T10:59:14.354Z,80.69
2023-01-13T11:02:27.421Z,80.55
2023-01-13T11:04:55.482Z,80.42
2023-01-13T11:07:40.093Z,80.00
2023-01-13T11:10:17.238Z,79.86
2023-01-13T11:13:15.568Z,79.63
2023-01-13T11:16:00.656Z,79.60
2023-01-13T11:18:37.893Z,79.64
2023-01-13T11:21:21.515Z,79.47
2023-01-13T11:24:02.417Z,79.38
2023-01-13T11:26:43.480Z,79.27
2023-01-13T11:29:30.143Z,79.26
2023-01-13T11:32:10.827Z,78.94
2023-01-13T11:34:45.206Z,79.06
2023-01-13T11:37:30.623Z,79.16
2023-01-13T11:40:07.859Z,78.87
2023-01-13T11:42:43.542Z,78.59
2023-01-13T11:45:24.526Z,78.34
2023-01-13T11:47:58.363Z,78.12
2023-01-13T11:50:42.765Z,77.90
2023-01-13T11:53:28.818Z,77.91
2023-01-13T11:56:47.310Z,77.84
2023-01-13T11:59:33.558Z,78.00
2023-01-13T12:02:57.173Z,77.88
2023-01-13T12:05:28.241Z,78.16
2023-01-13T12:08:26.219Z,78.05
2023-01-13T12:12:02.209Z,78.02
2023-01-13T12:14:39.064Z,78.14
2023-01-13T12:17:22.058Z,78.06
2023-01-13T12:19:51.361Z,78.21
2023-01-13T12:22:30.088Z,78.25
2023-01-13T12:25:14.043Z,78.21
2023-01-13T12:27:49.342Z,78.30
2023-01-13T12:30:47.877Z,78.24
2023-01-13T12:33:43.067Z,78.08
2023-01-13T12:36:35.608Z,78.17
2023-01-13T12:39:13.685Z,78.03
2023-01-13T12:42:08.448Z,78.05
2023-01-13T12:44:36.579Z,78.03
2023-01-13T12:47:04.644Z,77.95
2023-01-13T12:49:35.343Z,77.96
2023-01-13T12:52:13.849Z,77.88
2023-01-13T12:54:42.542Z,77.74
2023-01-13T12:57:16.517Z,77.55
2023-01-13T12:59:49.193Z,77.39
2023-01-13T13:02:27.693Z,77.50
2023-01-13T13:05:21.320Z,77.42
2023-01-13T13:08:00.913Z,77.27
2023-01-13T13:10:33.918Z,77.36
2023-01-13T13:13:18.941Z,77.22
2023-01-13T13:15:49.467Z,77.16
2023-01-13T13:18:17.491Z,77.28
2023-01-13T13:21:01.156Z,76.98
2023-01-13T13:23:35.557Z,76.77
2023-01-13T13:26:17.599Z,76.59
2023-01-13T13:29:19.482Z,76.75
2023-01-13T13:32:02.508Z,77.07
2023-01-13T13:34:38.958Z,77.02
2023-01-13T13:37:28.888Z,77.07
2023-01-13T13:40:16.235Z,77.03
2023-01-13T13:43:07.633Z,77.26
2023-01-13T13:45:54.651Z,77.23
2023-01-13T13:48:34.403Z,77.42
2023-01-13T13:51:14.654Z,77.41
2023-01-13T13:53:42.788Z,77.39
2023-01-13T13:56:20.923Z,77.16
2023-01-13T13:58:50.576Z,77.32
2023-01-13T14:01:37.281Z,77.22
2023-01-13T14:04:26.245Z,77.41
2023-01-13T14:06:58.582Z,77.53
2023-01-13T14:09:38.641Z,77.74
2023-01-13T14:12:17.132Z,77.91
2023-01-13T14:14:47.428Z,78.06
2023-01-13T14:17:26.039Z,78.29
2023-01-13T14:20:05.499Z,78.57
2023-01-13T14:22:33.696Z,78.91
2023-01-13T14:25:02.172Z,79.26
2023-01-13T14:27:31.042Z,79.59
2023-01-13T14:30:00.936Z,79.77
2023-01-13T14:32:37.645Z,80.06
2023-01-13T14:35:07.388Z,80.38
2023-01-13T14:37:39.532Z,80.50
2023-01-13T14:40:33.667Z,80.80
2023-01-13T14:43:12.325Z,81.15
2023-01-13T14:45:55.096Z,81.64
2023-01-13T14:48:32.455Z,81.74
2023-01-13T14:51:02.750Z,82.09
2023-01-13T14:53:40.736Z,82.18
2023-01-13T14:56:36.941Z,82.39
2023-01-13T14:59:35.932Z,82.55
2023-01-13T15:02:34.693Z,82.79
2023-01-13T15:05:24.412Z,82.91
2023-01-13T15:08:11.480Z,83.02
2023-01-13T15:11:06.775Z,83.45
2023-01-13T15:13:37.667Z,83.70
2023-01-13T15:16:13.560Z,83.89
2023-01-13T15:18:41.684Z,83.80
2023-01-13T15:21:10.631Z,83.74
2023-01-13T15:23:41.007Z,83.87
2023-01-13T15:26:30.093Z,84.02
2023-01-13T15:28:59.152Z,84.16
2023-01-13T15:31:28.515Z,84.24
2023-01-13T15:33:57.179Z,84.54
2023-01-13T15:36:29.103Z,84.49
2023-01-13T15:38:58.712Z,84.54
2023-01-13T15:41:45.498Z,84.81
2023-01-13T15:44:34.283Z,84.91
2023-01-13T15:47:05.419Z,85.13
2023-01-13T15:49:42.441Z,85.26
2023-01-13T15:52:25.116Z,85.19
2023-01-13T15:54:54.072Z,85.53
2023-01-13T15:57:27.525Z,85.59
2023-01-13T15:59:58.203Z,85.56
2023-01-13T16:02:26.828Z,85.35
2023-01-13T16:04:54.984Z,85.31
2023-01-13T16:07:25.257Z,85.15
2023-01-13T16:09:53.433Z,84.86
2023-01-13T16:12:22.028Z,84.81
2023-01-13T16:14:50.016Z,84.96
2023-01-13T16:17:21.018Z,84.84
2023-01-13T16:19:49.146Z,84.58
2023-01-13T16:22:18.390Z,84.63
2023-01-13T16:24:47.022Z,84.69
2023-01-13T16:27:23.585Z,84.64
2023-01-13T16:29:53.247Z,84.70
2023-01-13T16:32:21.427Z,84.53
2023-01-13T16:34:49.804Z,84.53
2023-01-13T16:37:21.298Z,84.36
2023-01-13T16:39:49.660Z,84.25
2023-01-13T16:42:17.717Z,84.10
2023-01-13T16:44:48.185Z,84.02
2023-01-13T16:47:17.742Z,83.93
2023-01-13T16:49:46.703Z,83.67
2023-01-13T16:52:14.832Z,83.62
2023-01-13T16:54:42.897Z,83.45
2023-01-13T16:57:14.334Z,83.23
2023-01-13T16:59:42.512Z,82.97
2023-01-13T17:02:19.721Z,82.77
2023-01-13T17:04:49.104Z,82.58
2023-01-13T17:07:18.094Z,82.31
2023-01-13T17:09:46.158Z,82.12
2023-01-13T17:12:14.245Z,81.66
2023-01-13T17:14:43.643Z,81.49
2023-01-13T17:17:30.239Z,81.18
2023-01-13T17:19:58.184Z,81.24
2023-01-13T17:22:26.186Z,81.15
2023-01-13T17:24:54.358Z,80.83
2023-01-13T17:27:23.446Z,80.69
2023-01-13T17:29:51.537Z,80.47
2023-01-13T17:32:21.202Z,80.29
2023-01-13T17:34:50.110Z,80.25
2023-01-13T17:37:18.293Z,80.06
2023-01-13T17:39:48.657Z,79.89
2023-01-13T17:42:17.283Z,79.58
2023-01-13T17:44:46.915Z,79.43
2023-01-13T17:47:15.381Z,79.22
2023-01-13T17:49:43.553Z,79.00
2023-01-13T17:52:12.041Z,78.87
2023-01-13T17:54:43.153Z,78.77
2023-01-13T17:57:11.346Z,78.44
2023-01-13T17:59:41.573Z,78.11
2023-01-13T18:02:12.045Z,77.84
2023-01-13T18:04:40.675Z,77.76
2023-01-13T18:07:08.816Z,77.71
2023-01-13T18:09:36.808Z,77.43
2023-01-13T18:12:05.036Z,77.33
2023-01-13T18:14:33.083Z,77.28
2023-01-13T18:17:01.193Z,77.25
2023-01-13T18:19:48.012Z,77.20
2023-01-13T18:22:45.195Z,77.48
2023-01-13T18:25:31.711Z,77.58
2023-01-13T18:28:02.683Z,77.60
2023-01-13T18:30:30.848Z,77.71
2023-01-13T18:32:58.984Z,77.70
2023-01-13T18:35:27.038Z,77.51
2023-01-13T18:37:54.996Z,77.56
2023-01-13T18:40:23.096Z,77.80
2023-01-13T18:42:59.262Z,77.93
2023-01-13T18:45:30.090Z,78.14
2023-01-13T18:48:01.479Z,78.23
2023-01-13T18:50:30.214Z,78.37
2023-01-13T18:52:58.747Z,78.50
2023-01-13T18:55:28.830Z,78.79
2023-01-13T18:57:57.604Z,79.07
2023-01-13T19:00:27.328Z,79.09
2023-01-13T19:05:35.864Z,79.35
2023-01-13T19:08:05.326Z,79.38
2023-01-13T19:10:33.385Z,79.49
2023-01-13T19:13:01.933Z,79.64
2023-01-13T19:15:30.444Z,79.81
2023-01-13T19:17:58.968Z,79.87
2023-01-13T19:20:26.994Z,79.73
2023-01-13T19:22:55.207Z,79.67
2023-01-13T19:25:23.273Z,79.70
2023-01-13T19:27:51.360Z,79.71
2023-01-13T19:30:19.470Z,79.81
2023-01-13T19:32:47.551Z,79.83
2023-01-13T19:35:18.200Z,79.94
2023-01-13T19:37:46.270Z,79.96
2023-01-13T19:40:14.421Z,80.01
2023-01-13T19:43:04.777Z,79.98
2023-01-13T19:45:35.413Z,80.07
2023-01-13T19:48:05.690Z,80.13
2023-01-13T19:50:39.114Z,80.04
2023-01-13T19:53:07.837Z,79.90
2023-01-13T19:55:35.883Z,80.08
2023-01-13T19:58:04.151Z,80.18
2023-01-13T20:00:32.224Z,80.10
2023-01-13T20:03:03.714Z,80.11
2023-01-13T20:05:31.771Z,80.06
2023-01-13T20:07:59.804Z,80.03
2023-01-13T20:10:30.392Z,79.93
2023-01-13T20:12:58.844Z,79.90
2023-01-13T20:15:26.909Z,79.83
2023-01-13T20:17:55.888Z,79.85
2023-01-13T20:20:26.911Z,79.77
2023-01-13T20:22:54.870Z,79.69
2023-01-13T20:25:23.324Z,79.73
2023-01-13T20:27:51.327Z,79.69
2023-01-13T20:30:19.294Z,79.57
2023-01-13T20:32:47.394Z,79.64
2023-01-13T20:35:15.634Z,79.51
2023-01-13T20:37:44.230Z,79.56
2023-01-13T20:40:15.770Z,79.45
2023-01-13T20:42:46.244Z,79.52
2023-01-13T20:45:18.164Z,79.43
2023-01-13T20:47:46.763Z,79.35
2023-01-13T20:50:16.259Z,79.21
2023-01-13T20:52:44.752Z,79.02
2023-01-13T20:55:13.334Z,78.83
2023-01-13T20:57:43.019Z,78.59
2023-01-13T21:00:11.483Z,78.46
2023-01-13T21:02:40.964Z,78.36
2023-01-13T21:05:09.982Z,78.29
2023-01-13T21:07:38.084Z,78.21
2023-01-13T21:10:06.738Z,77.99
2023-01-13T21:12:53.255Z,77.91
2023-01-13T21:15:22.216Z,77.90
2023-01-13T21:18:10.314Z,78.00
2023-01-13T21:20:39.594Z,78.06
2023-01-13T21:23:10.765Z,77.91
2023-01-13T21:25:40.323Z,77.74
2023-01-13T21:28:11.766Z,77.77
2023-01-13T21:30:40.214Z,77.62
2023-01-13T21:33:13.559Z,77.34
2023-01-13T21:35:41.629Z,77.18
2023-01-13T21:38:11.143Z,77.10
2023-01-13T21:40:39.114Z,76.90
2023-01-13T21:43:30.559Z,76.92
2023-01-13T21:46:17.031Z,76.82
2023-01-13T21:48:45.100Z,76.63
2023-01-13T21:51:13.128Z,76.24
2023-01-13T21:53:41.127Z,76.09
2023-01-13T21:56:09.200Z,76.16
2023-01-13T21:58:38.906Z,75.94
2023-01-13T22:01:07.011Z,75.73
2023-01-13T22:03:53.994Z,75.73
2023-01-13T22:06:23.394Z,75.85
2023-01-13T22:08:51.804Z,75.82
2023-01-13T22:11:20.153Z,75.65
2023-01-13T22:14:06.957Z,75.70
2023-01-13T22:16:41.680Z,75.72
2023-01-13T22:19:10.474Z,75.86
2023-01-13T22:21:39.023Z,75.80
2023-01-13T22:24:07.155Z,75.79
2023-01-13T22:26:35.086Z,75.82
2023-01-13T22:29:03.163Z,75.93
2023-01-13T22:31:31.830Z,75.97
2023-01-13T22:33:59.840Z,75.96
2023-01-13T22:36:28.003Z,75.78
2023-01-13T22:38:57.082Z,75.66
2023-01-13T22:41:25.132Z,75.51
2023-01-13T22:43:53.078Z,75.34
2023-01-13T22:46:22.420Z,75.12
2023-01-13T22:48:53.853Z,75.18
2023-01-13T22:51:22.976Z,75.34
2023-01-13T22:53:51.445Z,75.15
2023-01-13T22:56:21.872Z,75.12
2023-01-13T22:59:00.636Z,75.13
2023-01-13T23:01:31.433Z,75.19
2023-01-13T23:04:01.267Z,74.95
2023-01-13T23:06:31.347Z,74.82
2023-01-13T23:08:59.567Z,74.68
2023-01-13T23:11:29.615Z,74.50
2023-01-13T23:14:00.287Z,74.48
2023-01-13T23:16:29.940Z,74.59
2023-01-13T23:18:58.364Z,74.48
2023-01-13T23:21:29.709Z,74.13
2023-01-13T23:23:58.924Z,74.12
2023-01-13T23:26:28.272Z,74.24
2023-01-13T23:29:01.089Z,74.29
2023-01-13T23:31:29.560Z,74.32
2023-01-13T23:33:58.382Z,74.28
2023-01-13T23:36:28.587Z,74.40
2023-01-13T23:38:59.342Z,74.31
2023-01-13T23:41:28.182Z,74.17
2023-01-13T23:44:00.979Z,74.18
2023-01-13T23:46:31.097Z,74.00
2023-01-13T23:48:59.091Z,74.02
2023-01-13T23:51:29.986Z,73.89
2023-01-13T23:53:59.306Z,73.87
2023-01-13T23:56:30.556Z,73.85
2023-01-13T23:58:59.338Z,73.87
